createdAt,value
2018-04-07T00:01:51.966Z,7.60
2018-04-07T00:04:19.437Z,9.07
2018-04-07T00:06:46.907Z,7.73
2018-04-07T00:09:14.363Z,6.87
2018-04-07T00:11:41.873Z,8.13
2018-04-07T00:14:10.123Z,8.70
2018-04-07T00:16:37.626Z,7.97
2018-04-07T00:19:05.899Z,8.30
2018-04-07T00:21:34.179Z,8.13
2018-04-07T00:24:02.442Z,8.50
2018-04-07T00:26:29.910Z,9.20
2018-04-07T00:28:58.156Z,8.30
2018-04-07T00:31:25.617Z,8.17
2018-04-07T00:33:53.117Z,7.47
2018-04-07T00:36:20.603Z,8.53
2018-04-07T00:38:48.078Z,9.03
2018-04-07T00:41:15.564Z,7.27
2018-04-07T00:43:43.049Z,6.83
2018-04-07T00:46:10.559Z,8.30
2018-04-07T00:48:38.083Z,19.67
2018-04-07T00:51:06.343Z,11.20
2018-04-07T00:53:34.703Z,9.43
2018-04-07T00:56:02.944Z,8.80
2018-04-07T00:58:30.411Z,8.57
2018-04-07T01:00:57.886Z,9.33
2018-04-07T01:03:25.387Z,8.83
2018-04-07T01:05:52.885Z,8.80
2018-04-07T01:08:20.420Z,9.10
2018-04-07T01:10:47.900Z,8.33
2018-04-07T01:13:15.360Z,7.73
2018-04-07T01:15:42.855Z,8.30
2018-04-07T01:18:11.140Z,9.70
2018-04-07T01:20:38.625Z,9.37
2018-04-07T01:23:06.108Z,8.40
2018-04-07T01:25:33.597Z,8.30
2018-04-07T01:28:01.069Z,9.57
2018-04-07T01:30:29.336Z,9.03
2018-04-07T01:32:56.835Z,9.57
2018-04-07T01:35:24.314Z,9.57
2018-04-07T01:37:51.801Z,9.10
2018-04-07T01:40:19.316Z,8.53
2018-04-07T01:42:46.801Z,9.47
2018-04-07T01:45:14.297Z,9.43
2018-04-07T01:47:41.770Z,9.63
2018-04-07T01:50:10.005Z,9.40
2018-04-07T01:52:37.497Z,9.43
2018-04-07T01:55:05.741Z,11.30
2018-04-07T01:57:33.242Z,9.33
2018-04-07T02:00:01.523Z,10.27
2018-04-07T02:02:29.776Z,10.40
2018-04-07T02:04:57.262Z,10.20
2018-04-07T02:07:24.735Z,8.93
2018-04-07T02:09:52.203Z,9.77
2018-04-07T02:12:19.675Z,9.83
2018-04-07T02:14:47.145Z,9.90
2018-04-07T02:17:14.606Z,9.87
2018-04-07T02:19:42.135Z,9.53
2018-04-07T02:22:09.621Z,9.40
2018-04-07T02:24:37.098Z,10.07
2018-04-07T02:27:04.574Z,10.60
2018-04-07T02:29:32.821Z,11.00
2018-04-07T02:32:00.288Z,9.73
2018-04-07T02:34:27.768Z,8.83
2018-04-07T02:36:55.995Z,10.43
2018-04-07T02:39:23.953Z,10.00
2018-04-07T02:41:51.419Z,10.93
2018-04-07T02:44:18.875Z,9.70
2018-04-07T02:46:46.344Z,10.10
2018-04-07T02:49:13.866Z,10.97
2018-04-07T02:51:41.330Z,10.27
2018-04-07T02:54:08.802Z,9.23
2018-04-07T02:56:36.265Z,10.70
2018-04-07T02:59:03.825Z,8.50
2018-04-07T03:01:31.315Z,9.87
2018-04-07T03:03:58.806Z,10.07
2018-04-07T03:06:27.048Z,9.63
2018-04-07T03:08:54.542Z,9.87
2018-04-07T03:11:22.816Z,10.37
2018-04-07T03:13:50.316Z,10.00
2018-04-07T03:16:17.782Z,10.60
2018-04-07T03:18:45.291Z,11.00
2018-04-07T03:21:13.575Z,11.20
2018-04-07T03:23:41.877Z,12.30
2018-04-07T03:26:09.337Z,10.33
2018-04-07T03:28:36.805Z,10.50
2018-04-07T03:31:04.299Z,11.43
2018-04-07T03:33:31.842Z,11.70
2018-04-07T03:35:59.517Z,10.70
2018-04-07T03:38:27.030Z,11.20
2018-04-07T03:40:54.483Z,11.40
2018-04-07T03:43:21.955Z,11.13
2018-04-07T03:45:49.426Z,11.93
2018-04-07T03:48:16.921Z,12.77
2018-04-07T03:50:44.414Z,23.13
2018-04-07T03:53:11.904Z,18.07
2018-04-07T03:55:39.366Z,16.90
2018-04-07T03:58:06.880Z,12.53
2018-04-07T04:00:34.376Z,12.23
2018-04-07T04:03:01.863Z,9.87
2018-04-07T04:05:29.389Z,10.83
2018-04-07T04:07:56.879Z,10.63
2018-04-07T04:10:24.356Z,11.53
2018-04-07T04:12:51.815Z,10.83
2018-04-07T04:15:20.118Z,13.00
2018-04-07T04:17:48.368Z,12.40
2018-04-07T04:20:15.850Z,11.60
2018-04-07T04:22:44.088Z,11.47
2018-04-07T04:25:11.554Z,17.40
2018-04-07T04:27:39.015Z,16.57
2018-04-07T04:30:06.530Z,15.43
2018-04-07T04:32:34.086Z,13.70
2018-04-07T04:35:01.568Z,10.80
2018-04-07T04:37:29.855Z,11.60
2018-04-07T04:39:57.338Z,12.97
2018-04-07T04:42:25.569Z,11.40
2018-04-07T04:44:53.030Z,13.27
2018-04-07T04:47:20.504Z,10.77
2018-04-07T04:49:47.981Z,12.57
2018-04-07T04:52:15.469Z,11.20
2018-04-07T04:54:42.954Z,11.20
2018-04-07T04:57:10.429Z,11.80
2018-04-07T04:59:38.664Z,12.03
2018-04-07T05:02:06.160Z,11.90
2018-04-07T05:04:33.639Z,11.73
2018-04-07T05:07:01.132Z,11.70
2018-04-07T05:09:29.411Z,12.20
2018-04-07T05:11:57.671Z,11.53
2018-04-07T05:14:25.135Z,10.77
2018-04-07T05:16:52.625Z,10.40
2018-04-07T05:19:20.092Z,10.90
2018-04-07T05:21:47.573Z,10.17
2018-04-07T05:24:15.099Z,12.50
2018-04-07T05:26:42.575Z,11.30
2018-04-07T05:29:10.068Z,10.77
2018-04-07T05:31:37.542Z,10.00
2018-04-07T05:34:06.895Z,11.77
2018-04-07T05:36:34.384Z,10.80
2018-04-07T05:39:01.869Z,11.63
2018-04-07T05:41:30.103Z,11.30
2018-04-07T05:43:57.573Z,11.80
2018-04-07T05:46:25.062Z,12.23
2018-04-07T05:48:54.133Z,11.73
2018-04-07T05:51:21.606Z,14.20
2018-04-07T05:53:49.086Z,11.03
2018-04-07T05:56:16.599Z,11.63
2018-04-07T05:58:44.087Z,10.40
2018-04-07T06:01:11.565Z,11.43
2018-04-07T06:03:39.081Z,11.40
2018-04-07T06:06:06.579Z,12.10
2018-04-07T06:08:34.811Z,11.93
2018-04-07T06:11:03.042Z,10.90
2018-04-07T06:13:30.597Z,14.60
2018-04-07T06:15:59.349Z,11.33
2018-04-07T06:18:26.827Z,13.00
2018-04-07T06:20:55.096Z,11.30
2018-04-07T06:23:23.367Z,12.23
2018-04-07T06:25:51.294Z,11.10
2018-04-07T06:28:18.764Z,11.63
2018-04-07T06:30:46.248Z,11.00
2018-04-07T06:33:13.716Z,11.40
2018-04-07T06:35:41.209Z,11.40
2018-04-07T06:38:08.674Z,11.00
2018-04-07T06:40:36.185Z,11.20
2018-04-07T06:43:03.730Z,11.70
2018-04-07T06:45:31.239Z,12.57
2018-04-07T06:47:58.699Z,12.63
2018-04-07T06:50:26.212Z,13.90
2018-04-07T06:52:53.726Z,12.90
2018-04-07T06:55:21.228Z,14.83
2018-04-07T06:57:48.702Z,12.40
2018-04-07T07:00:16.229Z,9.70
2018-04-07T07:02:43.754Z,12.17
2018-04-07T07:05:11.623Z,10.30
2018-04-07T07:07:39.128Z,8.70
2018-04-07T07:10:06.619Z,8.43
2018-04-07T07:12:34.869Z,8.87
2018-04-07T07:15:02.366Z,8.80
2018-04-07T07:17:30.611Z,7.70
2018-04-07T07:19:58.095Z,8.33
2018-04-07T07:22:26.345Z,8.97
2018-04-07T07:24:53.822Z,7.80
2018-04-07T07:27:22.079Z,7.00
2018-04-07T07:29:49.581Z,7.17
2018-04-07T07:32:17.162Z,6.73
2018-04-07T07:34:44.674Z,6.87
2018-04-07T07:37:12.152Z,7.30
2018-04-07T07:39:40.392Z,7.90
2018-04-07T07:42:07.887Z,7.70
2018-04-07T07:44:35.357Z,8.90
2018-04-07T07:47:02.831Z,7.73
2018-04-07T07:49:30.326Z,7.50
2018-04-07T07:51:57.813Z,7.77
2018-04-07T07:54:25.355Z,7.63
2018-04-07T07:56:53.716Z,8.10
2018-04-07T07:59:21.190Z,8.00
2018-04-07T08:01:48.654Z,7.57
2018-04-07T08:04:16.914Z,7.90
2018-04-07T08:06:44.474Z,8.27
2018-04-07T08:09:11.970Z,7.33
2018-04-07T08:11:40.203Z,8.20
2018-04-07T08:14:07.794Z,6.53
2018-04-07T08:16:35.278Z,7.50
2018-04-07T08:19:02.755Z,7.70
2018-04-07T08:21:30.289Z,7.30
2018-04-07T08:23:58.519Z,8.40
2018-04-07T08:26:26.021Z,7.57
2018-04-07T08:28:54.253Z,8.00
2018-04-07T08:31:21.737Z,7.10
2018-04-07T08:33:49.218Z,6.60
2018-04-07T08:36:17.465Z,8.70
2018-04-07T08:38:44.930Z,8.77
2018-04-07T08:41:12.413Z,8.63
2018-04-07T08:43:40.664Z,8.70
2018-04-07T08:46:08.155Z,9.00
2018-04-07T08:48:36.448Z,8.87
2018-04-07T08:51:04.052Z,9.30
2018-04-07T08:53:31.795Z,9.70
2018-04-07T08:55:59.721Z,10.70
2018-04-07T08:58:27.980Z,9.35
2018-04-07T09:00:55.451Z,10.05
2018-04-07T09:03:24.355Z,10.32
2018-04-07T09:05:53.034Z,9.82
2018-04-07T09:08:21.821Z,11.27
2018-04-07T09:10:50.075Z,10.02
2018-04-07T09:13:17.719Z,10.50
2018-04-07T09:15:45.701Z,10.18
2018-04-07T09:18:13.190Z,9.35
2018-04-07T09:20:41.438Z,9.60
2018-04-07T09:23:08.933Z,9.00
2018-04-07T09:25:37.193Z,9.55
2018-04-07T09:28:04.684Z,8.35
2018-04-07T09:30:32.150Z,8.93
2018-04-07T09:32:59.696Z,8.75
2018-04-07T09:35:27.199Z,6.45
2018-04-07T09:37:54.671Z,4.75
2018-04-07T09:40:22.163Z,4.43
2018-04-07T09:42:49.887Z,5.35
2018-04-07T09:45:17.398Z,5.30
2018-04-07T09:47:44.907Z,5.70
2018-04-07T09:50:12.592Z,5.55
2018-04-07T09:52:40.060Z,5.30
2018-04-07T09:55:08.339Z,4.40
2018-04-07T09:57:36.599Z,5.10
2018-04-07T10:00:07.534Z,4.57
2018-04-07T10:02:35.970Z,3.65
2018-04-07T10:05:03.485Z,4.35
2018-04-07T10:07:30.950Z,4.55
2018-04-07T10:09:59.202Z,5.20
2018-04-07T10:12:26.692Z,5.07
2018-04-07T10:14:54.418Z,4.70
2018-04-07T10:17:21.899Z,4.18
2018-04-07T10:19:49.439Z,4.18
2018-04-07T10:22:17.009Z,4.57
2018-04-07T10:24:44.518Z,4.20
2018-04-07T10:27:12.039Z,4.57
2018-04-07T10:29:39.560Z,4.40
2018-04-07T10:32:07.075Z,5.00
2018-04-07T10:34:35.151Z,4.18
2018-04-07T10:37:03.450Z,3.90
2018-04-07T10:39:31.071Z,4.75
2018-04-07T10:41:59.113Z,3.92
2018-04-07T10:44:26.699Z,5.12
2018-04-07T10:46:54.214Z,4.27
2018-04-07T10:49:21.785Z,3.87
2018-04-07T10:51:49.302Z,4.22
2018-04-07T10:54:17.151Z,4.85
2018-04-07T10:56:44.630Z,4.25
2018-04-07T10:59:23.646Z,4.50
2018-04-07T11:01:59.008Z,4.50
2018-04-07T11:04:26.797Z,4.12
2018-04-07T11:06:54.544Z,3.92
2018-04-07T11:09:22.034Z,4.43
2018-04-07T11:11:49.498Z,3.95
2018-04-07T11:14:17.000Z,3.70
2018-04-07T11:16:45.246Z,3.63
2018-04-07T11:19:12.719Z,2.60
2018-04-07T11:21:40.449Z,4.03
2018-04-07T11:24:08.082Z,3.90
2018-04-07T11:26:35.634Z,3.27
2018-04-07T11:29:03.933Z,3.60
2018-04-07T11:31:31.399Z,3.67
2018-04-07T11:33:58.953Z,3.10
2018-04-07T11:36:26.436Z,3.40
2018-04-07T11:38:53.934Z,2.70
2018-04-07T11:41:22.178Z,2.80
2018-04-07T11:43:49.907Z,3.80
2018-04-07T11:46:17.458Z,2.73
2018-04-07T11:48:44.978Z,3.50
2018-04-07T11:51:12.432Z,3.07
2018-04-07T11:53:39.910Z,3.40
2018-04-07T11:56:08.132Z,2.67
2018-04-07T11:58:35.663Z,3.40
2018-04-07T12:01:03.895Z,2.63
2018-04-07T12:03:31.384Z,2.73
2018-04-07T12:06:00.496Z,3.23
2018-04-07T12:08:28.748Z,2.87
2018-04-07T12:10:57.062Z,3.50
2018-04-07T12:13:24.534Z,3.30
2018-04-07T12:15:52.408Z,2.97
2018-04-07T12:18:19.868Z,2.63
2018-04-07T12:20:47.375Z,4.10
2018-04-07T12:23:14.865Z,2.60
2018-04-07T12:25:42.369Z,2.90
2018-04-07T12:28:09.894Z,3.40
2018-04-07T12:30:37.371Z,2.93
2018-04-07T12:33:04.860Z,3.10
2018-04-07T12:35:33.279Z,3.50
2018-04-07T12:38:00.747Z,3.20
2018-04-07T12:40:28.226Z,3.43
2018-04-07T12:42:58.411Z,3.40
2018-04-07T12:45:38.538Z,2.87
2018-04-07T12:48:06.113Z,3.50
2018-04-07T12:50:34.350Z,3.80
2018-04-07T12:53:02.599Z,2.73
2018-04-07T12:55:30.075Z,2.93
2018-04-07T12:57:57.562Z,2.70
2018-04-07T13:00:25.087Z,3.83
2018-04-07T13:02:52.610Z,2.50
2018-04-07T13:05:20.838Z,3.80
2018-04-07T13:07:48.331Z,2.97
2018-04-07T13:10:15.816Z,3.10
2018-04-07T13:12:43.327Z,3.40
2018-04-07T13:15:10.783Z,3.03
2018-04-07T13:17:38.254Z,3.10
2018-04-07T13:20:05.724Z,2.90
2018-04-07T13:22:34.091Z,3.57
2018-04-07T13:25:01.560Z,3.67
2018-04-07T13:27:29.038Z,2.93
2018-04-07T13:29:57.275Z,3.47
2018-04-07T13:32:24.831Z,3.73
2018-04-07T13:34:52.325Z,3.50
2018-04-07T13:37:20.564Z,3.40
2018-04-07T13:39:48.037Z,3.90
2018-04-07T13:42:15.519Z,3.60
2018-04-07T13:44:43.794Z,3.40
2018-04-07T13:47:11.289Z,3.30
2018-04-07T13:49:38.775Z,3.97
2018-04-07T13:52:06.242Z,4.07
2018-04-07T13:54:33.706Z,2.47
2018-04-07T13:57:01.989Z,2.87
2018-04-07T13:59:29.494Z,3.40
2018-04-07T14:01:57.046Z,3.60
2018-04-07T14:04:24.631Z,3.80
2018-04-07T14:06:52.069Z,3.40
2018-04-07T14:09:19.547Z,3.63
2018-04-07T14:11:47.036Z,3.43
2018-04-07T14:14:14.519Z,3.40
2018-04-07T14:16:42.788Z,4.43
2018-04-07T14:19:10.277Z,2.97
2018-04-07T14:21:37.764Z,4.17
2018-04-07T14:24:05.273Z,3.90
2018-04-07T14:26:33.516Z,4.17
2018-04-07T14:29:00.979Z,3.23
2018-04-07T14:31:28.651Z,4.23
2018-04-07T14:33:56.118Z,4.10
2018-04-07T14:36:23.612Z,3.80
2018-04-07T14:38:51.117Z,3.87
2018-04-07T14:41:18.636Z,5.27
2018-04-07T14:43:46.099Z,3.40
2018-04-07T14:46:13.573Z,3.20
2018-04-07T14:48:41.068Z,3.40
2018-04-07T14:51:08.547Z,4.40
2018-04-07T14:53:36.854Z,3.67
2018-04-07T14:56:04.333Z,3.63
2018-04-07T14:58:31.874Z,4.03
2018-04-07T15:00:59.350Z,4.00
2018-04-07T15:03:26.832Z,4.47
2018-04-07T15:05:54.313Z,4.07
2018-04-07T15:08:22.557Z,4.40
2018-04-07T15:10:50.133Z,4.27
2018-04-07T15:13:17.622Z,4.47
2018-04-07T15:15:45.884Z,3.73
2018-04-07T15:18:13.365Z,5.10
2018-04-07T15:20:40.886Z,3.80
2018-04-07T15:23:08.358Z,4.10
2018-04-07T15:25:36.011Z,3.70
2018-04-07T15:28:04.311Z,3.50
2018-04-07T15:30:32.555Z,3.80
2018-04-07T15:33:00.067Z,5.00
2018-04-07T15:35:28.286Z,4.50
2018-04-07T15:37:55.775Z,4.20
2018-04-07T15:40:23.244Z,4.17
2018-04-07T15:42:51.508Z,3.30
2018-04-07T15:45:20.008Z,4.60
2018-04-07T15:47:48.251Z,4.30
2018-04-07T15:50:15.715Z,4.53
2018-04-07T15:52:43.290Z,4.50
2018-04-07T15:55:10.806Z,4.37
2018-04-07T15:57:38.295Z,4.33
2018-04-07T16:00:06.653Z,4.00
2018-04-07T16:02:34.495Z,5.10
2018-04-07T16:05:01.974Z,4.50
2018-04-07T16:07:29.629Z,5.43
2018-04-07T16:09:57.209Z,4.30
2018-04-07T16:12:25.498Z,4.57
2018-04-07T16:14:53.152Z,5.07
2018-04-07T16:17:20.653Z,6.63
2018-04-07T16:19:48.175Z,5.03
2018-04-07T16:22:15.647Z,5.00
2018-04-07T16:24:43.246Z,4.60
2018-04-07T16:27:10.853Z,5.03
2018-04-07T16:29:38.351Z,4.53
2018-04-07T16:32:06.584Z,5.00
2018-04-07T16:34:34.061Z,5.43
2018-04-07T16:37:01.559Z,5.90
2018-04-07T16:39:29.022Z,4.93
2018-04-07T16:41:56.550Z,4.90
2018-04-07T16:44:24.801Z,4.40
2018-04-07T16:46:52.280Z,5.33
2018-04-07T16:49:19.764Z,5.00
2018-04-07T16:51:47.246Z,5.07
2018-04-07T16:54:14.773Z,5.47
2018-04-07T16:56:43.036Z,4.83
2018-04-07T16:59:11.288Z,5.00
2018-04-07T17:01:38.875Z,6.17
2018-04-07T17:04:07.230Z,4.33
2018-04-07T17:06:35.504Z,5.90
2018-04-07T17:09:03.001Z,5.60
2018-04-07T17:11:31.290Z,4.23
2018-04-07T17:13:58.789Z,4.50
2018-04-07T17:16:26.290Z,5.37
2018-04-07T17:18:54.526Z,5.13
2018-04-07T17:21:22.004Z,4.83
2018-04-07T17:23:49.579Z,4.90
2018-04-07T17:26:17.872Z,5.00
2018-04-07T17:28:46.135Z,5.00
2018-04-07T17:31:14.384Z,4.57
2018-04-07T17:33:41.928Z,5.27
2018-04-07T17:36:09.638Z,5.90
2018-04-07T17:38:37.245Z,6.10
2018-04-07T17:41:04.760Z,5.00
2018-04-07T17:43:32.297Z,4.50
2018-04-07T17:46:00.947Z,7.30
2018-04-07T17:48:28.607Z,5.90
2018-04-07T17:50:57.143Z,4.53
2018-04-07T17:53:26.474Z,5.43
2018-04-07T17:55:54.512Z,4.83
2018-04-07T17:58:21.975Z,4.30
2018-04-07T18:00:49.880Z,3.77
2018-04-07T18:03:17.412Z,5.03
2018-04-07T18:05:45.691Z,4.10
2018-04-07T18:08:13.934Z,5.50
2018-04-07T18:10:41.400Z,5.17
2018-04-07T18:13:08.919Z,4.73
2018-04-07T18:15:36.389Z,4.23
2018-04-07T18:18:03.880Z,4.53
2018-04-07T18:20:31.380Z,4.70
2018-04-07T18:22:58.866Z,5.53
2018-04-07T18:25:26.367Z,4.83
2018-04-07T18:27:53.864Z,4.13
2018-04-07T18:30:21.362Z,4.53
2018-04-07T18:32:48.818Z,4.87
2018-04-07T18:35:16.300Z,4.33
2018-04-07T18:37:43.877Z,5.27
2018-04-07T18:40:12.178Z,5.60
2018-04-07T18:42:39.651Z,4.60
2018-04-07T18:45:07.341Z,5.40
2018-04-07T18:47:34.854Z,6.20
2018-04-07T18:50:02.325Z,7.00
2018-04-07T18:52:30.480Z,6.80
2018-04-07T18:54:58.724Z,7.10
2018-04-07T18:57:26.359Z,6.90
2018-04-07T18:59:54.795Z,7.43
2018-04-07T19:02:22.295Z,7.00
2018-04-07T19:04:50.185Z,7.97
2018-04-07T19:07:17.701Z,8.13
2018-04-07T19:09:45.662Z,7.53
2018-04-07T19:12:13.195Z,6.70
2018-04-07T19:14:41.443Z,8.83
2018-04-07T19:17:08.922Z,6.63
2018-04-07T19:19:36.402Z,6.83
2018-04-07T19:22:05.318Z,7.40
2018-04-07T19:24:32.823Z,6.60
2018-04-07T19:27:00.300Z,6.70
2018-04-07T19:29:27.862Z,6.87
2018-04-07T19:31:55.743Z,7.70
2018-04-07T19:34:24.880Z,7.53
2018-04-07T19:36:53.755Z,8.00
2018-04-07T19:39:22.944Z,8.33
2018-04-07T19:41:52.851Z,8.03
2018-04-07T19:44:22.264Z,7.60
2018-04-07T19:46:49.911Z,7.13
2018-04-07T19:49:19.044Z,7.83
2018-04-07T19:51:49.585Z,8.40
2018-04-07T19:54:20.657Z,9.90
2018-04-07T19:56:50.833Z,8.13
2018-04-07T19:59:19.177Z,8.40
2018-04-07T20:01:47.848Z,8.30
2018-04-07T20:04:16.116Z,6.63
2018-04-07T20:06:43.713Z,6.37
2018-04-07T20:09:11.224Z,7.90
2018-04-07T20:11:38.727Z,6.30
2018-04-07T20:14:06.229Z,7.10
2018-04-07T20:16:33.851Z,6.43
2018-04-07T20:19:02.196Z,6.63
2018-04-07T20:21:29.736Z,7.30
2018-04-07T20:23:57.237Z,7.20
2018-04-07T20:26:25.525Z,8.30
2018-04-07T20:28:53.778Z,8.40
2018-04-07T20:31:21.339Z,9.90
2018-04-07T20:33:48.960Z,10.47
2018-04-07T20:36:16.476Z,9.20
2018-04-07T20:38:44.737Z,9.13
2018-04-07T20:41:12.231Z,7.83
2018-04-07T20:43:39.746Z,7.97
2018-04-07T20:46:07.239Z,7.90
2018-04-07T20:48:35.512Z,7.73
2018-04-07T20:51:03.766Z,8.90
2018-04-07T20:53:31.245Z,9.10
2018-04-07T20:55:59.173Z,10.40
2018-04-07T20:58:26.641Z,8.70
2018-04-07T21:00:54.144Z,9.17
2018-04-07T21:03:21.663Z,7.90
2018-04-07T21:05:56.741Z,8.00
2018-04-07T21:08:24.963Z,7.30
2018-04-07T21:10:52.446Z,8.00
2018-04-07T21:13:20.456Z,8.20
2018-04-07T21:15:47.946Z,7.87
2018-04-07T21:18:15.678Z,7.17
2018-04-07T21:20:43.278Z,7.77
2018-04-07T21:23:10.784Z,8.30
2018-04-07T21:25:39.028Z,8.10
2018-04-07T21:28:06.512Z,8.67
2018-04-07T21:30:34.811Z,10.53
2018-04-07T21:33:02.299Z,11.40
2018-04-07T21:35:29.877Z,8.50
2018-04-07T21:37:57.386Z,9.50
2018-04-07T21:40:25.640Z,8.23
2018-04-07T21:42:53.885Z,9.93
2018-04-07T21:45:21.364Z,8.20
2018-04-07T21:47:48.842Z,9.60
2018-04-07T21:50:17.084Z,9.00
2018-04-07T21:52:44.565Z,8.67
2018-04-07T21:55:12.031Z,9.70
2018-04-07T21:57:41.770Z,10.83
2018-04-07T22:00:10.060Z,12.33
2018-04-07T22:02:37.612Z,10.60
2018-04-07T22:05:05.116Z,11.90
2018-04-07T22:07:32.694Z,10.27
2018-04-07T22:10:00.198Z,11.03
2018-04-07T22:12:27.684Z,12.60
2018-04-07T22:14:55.198Z,11.87
2018-04-07T22:17:22.689Z,12.93
2018-04-07T22:19:50.205Z,12.90
2018-04-07T22:22:18.452Z,11.57
2018-04-07T22:24:45.951Z,12.23
2018-04-07T22:27:14.190Z,12.50
2018-04-07T22:29:41.671Z,11.70
2018-04-07T22:32:10.021Z,12.60
2018-04-07T22:34:37.501Z,14.93
2018-04-07T22:37:05.046Z,12.47
2018-04-07T22:39:33.339Z,13.67
2018-04-07T22:42:01.604Z,14.23
2018-04-07T22:44:29.086Z,12.33
2018-04-07T22:46:57.371Z,12.87
2018-04-07T22:49:25.643Z,12.80
2018-04-07T22:51:53.911Z,12.60
2018-04-07T22:54:21.609Z,11.47
2018-04-07T22:56:49.129Z,12.13
2018-04-07T22:59:16.668Z,14.80
2018-04-07T23:01:44.165Z,13.20
2018-04-07T23:04:12.399Z,15.40
2018-04-07T23:06:39.964Z,17.30
2018-04-07T23:09:07.449Z,17.07
2018-04-07T23:11:35.900Z,19.40
2018-04-07T23:14:03.373Z,18.90
2018-04-07T23:16:30.854Z,18.87
2018-04-07T23:18:59.082Z,21.17
2018-04-07T23:21:26.572Z,20.40
2018-04-07T23:23:54.034Z,18.37
2018-04-07T23:26:21.545Z,17.07
2018-04-07T23:28:49.050Z,16.77
2018-04-07T23:31:16.524Z,17.90
2018-04-07T23:33:44.772Z,17.77
2018-04-07T23:36:12.256Z,19.83
2018-04-07T23:38:39.722Z,19.47
2018-04-07T23:41:07.958Z,19.37
2018-04-07T23:43:35.490Z,23.43
2018-04-07T23:46:02.979Z,23.97
2018-04-07T23:48:30.488Z,20.87
2018-04-07T23:50:57.966Z,21.40
2018-04-07T23:53:25.474Z,22.10
2018-04-07T23:55:54.063Z,23.30
2018-04-07T23:58:21.580Z,21.57
